Time;durP1;ratioP1;P1;durP2;ratioP2;P2;SDS_P1;SDS_P2;PMS_P1;PMS_P2;Temp;Humidity;BMP_temperature;BMP_pressure;BME280_temperature;BME280_humidity;BME280_pressure;Samples;Min_cycle;Max_cycle;Signal;HPM_P1;HPM_P2
2021/03/23 00:00:48;;;;;;;37.88;17.58;;;;;;;;;;4988819;28;20029;-48
2021/03/23 00:03:22;;;;;;;57.22;26.50;;;;;;;;;;4988317;28;20095;-49
2021/03/23 00:05:48;;;;;;;42.55;17.65;;;;;;;;;;4989090;28;20559;-48
2021/03/23 00:08:29;;;;;;;72.72;32.13;;;;;;;;;;4989144;28;20041;-48
2021/03/23 00:10:56;;;;;;;29.92;14.23;;;;;;;;;;4988704;28;20560;-48
2021/03/23 00:13:23;;;;;;;25.95;12.05;;;;;;;;;;4989023;28;20037;-48
2021/03/23 00:15:49;;;;;;;32.38;15.00;;;;;;;;;;4989001;28;20112;-51
2021/03/23 00:18:16;;;;;;;29.17;13.20;;;;;;;;;;4988928;28;20029;-50
2021/03/23 00:20:42;;;;;;;21.42;8.73;;;;;;;;;;4989422;28;20054;-50
2021/03/23 00:23:09;;;;;;;40.90;18.52;;;;;;;;;;4989116;28;20018;-50
2021/03/23 00:25:35;;;;;;;24.33;11.90;;;;;;;;;;4988778;28;20083;-48
2021/03/23 00:28:01;;;;;;;48.10;21.88;;;;;;;;;;4988214;28;20087;-48
2021/03/23 00:30:28;;;;;;;46.00;21.20;;;;;;;;;;4988904;28;20034;-47
2021/03/23 00:32:54;;;;;;;15.93;8.38;;;;;;;;;;4991920;28;20084;-48
2021/03/23 00:35:20;;;;;;;47.22;20.80;;;;;;;;;;4989003;28;20034;-49
2021/03/23 00:37:49;;;;;;;38.35;17.27;;;;;;;;;;4987742;28;20049;-48
2021/03/23 00:40:16;;;;;;;24.92;12.35;;;;;;;;;;5003406;28;20042;-48
2021/03/23 00:42:42;;;;;;;20.95;10.40;;;;;;;;;;4989275;28;20101;-51
2021/03/23 00:45:09;;;;;;;21.30;8.00;;;;;;;;;;5011317;28;20109;-48
2021/03/23 00:47:35;;;;;;;120.50;54.17;;;;;;;;;;5013332;28;20049;-48
2021/03/23 00:50:01;;;;;;;20.10;8.95;;;;;;;;;;5013382;28;20459;-48
2021/03/23 00:52:27;;;;;;;22.60;9.68;;;;;;;;;;5013187;28;20076;-48
2021/03/23 00:54:54;;;;;;;31.60;13.88;;;;;;;;;;5016762;28;20021;-49
2021/03/23 00:57:22;;;;;;;61.60;28.38;;;;;;;;;;5017179;28;20080;-48
2021/03/23 00:59:48;;;;;;;25.63;11.57;;;;;;;;;;5017244;28;20029;-48
2021/03/23 01:02:14;;;;;;;17.63;7.85;;;;;;;;;;5017051;28;20022;-50
2021/03/23 01:04:40;;;;;;;17.23;8.68;;;;;;;;;;5016865;28;20029;-48
2021/03/23 01:07:07;;;;;;;22.60;10.35;;;;;;;;;;5015838;28;20038;-48
2021/03/23 01:09:33;;;;;;;23.25;10.80;;;;;;;;;;5016809;28;20478;-51
2021/03/23 01:11:59;;;;;;;39.25;17.85;;;;;;;;;;5016741;28;20049;-47
2021/03/23 01:14:27;;;;;;;72.80;25.65;;;;;;;;;;5016410;28;20030;-47
2021/03/23 01:16:53;;;;;;;111.07;43.42;;;;;;;;;;5016544;28;20026;-48
2021/03/23 01:19:19;;;;;;;44.92;17.17;;;;;;;;;;5016839;28;20025;-48
2021/03/23 01:21:45;;;;;;;41.97;16.65;;;;;;;;;;5016633;28;20037;-48
2021/03/23 01:24:11;;;;;;;32.97;13.25;;;;;;;;;;5016657;28;20378;-47
2021/03/23 01:26:37;;;;;;;23.85;10.65;;;;;;;;;;5016666;28;20030;-48
2021/03/23 01:29:04;;;;;;;18.77;7.07;;;;;;;;;;5016466;28;20044;-48
2021/03/23 01:31:32;;;;;;;19.02;8.85;;;;;;;;;;5016339;28;20088;-47
2021/03/23 01:33:58;;;;;;;30.30;14.68;;;;;;;;;;5016479;28;20025;-47
2021/03/23 01:36:24;;;;;;;35.63;15.52;;;;;;;;;;5016490;28;20034;-47
2021/03/23 01:38:50;;;;;;;21.23;9.32;;;;;;;;;;5015332;28;20109;-47
2021/03/23 01:41:16;;;;;;;39.20;16.05;;;;;;;;;;5016180;28;20452;-47
2021/03/23 01:43:42;;;;;;;31.52;13.57;;;;;;;;;;5016103;28;20462;-47
2021/03/23 01:46:27;;;;;;;28.98;12.80;;;;;;;;;;5016235;28;20030;-48
2021/03/23 01:48:53;;;;;;;30.52;13.50;;;;;;;;;;5016171;28;20533;-47
2021/03/23 01:51:19;;;;;;;32.70;14.00;;;;;;;;;;5016285;28;20069;-48
2021/03/23 01:53:47;;;;;;;34.72;15.95;;;;;;;;;;5016171;28;20018;-47
2021/03/23 01:56:15;;;;;;;17.33;8.38;;;;;;;;;;5016042;28;20104;-47
2021/03/23 01:58:43;;;;;;;37.38;16.05;;;;;;;;;;5015962;28;20034;-50
2021/03/23 02:01:12;;;;;;;29.67;11.63;;;;;;;;;;5015829;28;20034;-48
2021/03/23 02:03:38;;;;;;;26.85;10.95;;;;;;;;;;5015905;28;20101;-50
2021/03/23 02:06:04;;;;;;;39.05;16.23;;;;;;;;;;5015351;28;20026;-50
2021/03/23 02:08:31;;;;;;;22.80;10.43;;;;;;;;;;5015788;28;20104;-49
2021/03/23 02:10:58;;;;;;;25.67;8.57;;;;;;;;;;5014245;28;20050;-49
2021/03/23 02:13:25;;;;;;;24.63;10.05;;;;;;;;;;5015418;28;20382;-48
2021/03/23 02:15:51;;;;;;;25.30;11.45;;;;;;;;;;5015594;28;20492;-48
2021/03/23 02:18:17;;;;;;;19.92;8.98;;;;;;;;;;5015598;28;20026;-49
2021/03/23 02:21:07;;;;;;;18.30;8.45;;;;;;;;;;5015541;28;20079;-50
2021/03/23 02:23:41;;;;;;;22.00;10.50;;;;;;;;;;5006199;28;20042;-49
2021/03/23 02:26:12;;;;;;;22.73;9.88;;;;;;;;;;5015645;28;20041;-49
2021/03/23 02:28:56;;;;;;;26.40;12.07;;;;;;;;;;5015999;28;20017;-48
2021/03/23 02:31:25;;;;;;;23.17;8.63;;;;;;;;;;5015400;28;20066;-48
2021/03/23 02:33:51;;;;;;;18.98;8.38;;;;;;;;;;5015376;28;20117;-49
2021/03/23 02:36:17;;;;;;;32.42;14.10;;;;;;;;;;5015344;28;20474;-50
2021/03/23 02:38:44;;;;;;;25.40;11.00;;;;;;;;;;5014861;28;20033;-49
2021/03/23 02:41:11;;;;;;;24.27;10.85;;;;;;;;;;5014667;28;20033;-49
2021/03/23 02:43:37;;;;;;;16.65;8.10;;;;;;;;;;5014843;28;20149;-50
2021/03/23 02:46:03;;;;;;;76.97;32.33;;;;;;;;;;5014694;28;20041;-49
2021/03/23 02:48:29;;;;;;;87.65;38.88;;;;;;;;;;5014669;28;20172;-48
2021/03/23 02:50:55;;;;;;;93.50;40.20;;;;;;;;;;5014528;28;20038;-48
2021/03/23 02:53:22;;;;;;;61.20;26.52;;;;;;;;;;5014961;28;20458;-48
2021/03/23 02:55:48;;;;;;;44.97;19.65;;;;;;;;;;5014535;28;20030;-48
2021/03/23 02:58:15;;;;;;;68.60;27.63;;;;;;;;;;5014648;28;20382;-49
2021/03/23 03:00:43;;;;;;;66.90;29.30;;;;;;;;;;5014652;28;20101;-49
2021/03/23 03:03:10;;;;;;;56.63;24.73;;;;;;;;;;5014365;28;20102;-49
2021/03/23 03:05:36;;;;;;;60.80;27.85;;;;;;;;;;5014424;28;20368;-50
2021/03/23 03:08:02;;;;;;;46.00;19.83;;;;;;;;;;5014702;28;20026;-50
2021/03/23 03:10:29;;;;;;;23.15;8.82;;;;;;;;;;5014545;28;20052;-50
2021/03/23 03:12:55;;;;;;;38.33;15.27;;;;;;;;;;5014857;28;20045;-50
2021/03/23 03:15:21;;;;;;;39.60;18.40;;;;;;;;;;5014727;28;20030;-50
2021/03/23 03:17:47;;;;;;;32.75;15.38;;;;;;;;;;5014660;28;20025;-50
2021/03/23 03:20:14;;;;;;;37.78;17.23;;;;;;;;;;5014755;28;20065;-50
2021/03/23 03:22:40;;;;;;;41.85;17.90;;;;;;;;;;5014657;28;20018;-50
2021/03/23 03:25:07;;;;;;;32.65;15.05;;;;;;;;;;5014447;28;20030;-48
2021/03/23 03:27:33;;;;;;;25.33;11.77;;;;;;;;;;5014590;28;20022;-50
2021/03/23 03:29:59;;;;;;;44.67;18.38;;;;;;;;;;5014366;28;20080;-47
2021/03/23 03:32:26;;;;;;;30.02;13.68;;;;;;;;;;5014477;28;20363;-50
2021/03/23 03:34:52;;;;;;;28.60;12.80;;;;;;;;;;5014348;28;20037;-49
2021/03/23 03:37:18;;;;;;;22.85;10.90;;;;;;;;;;5014243;28;20504;-49
2021/03/23 03:39:44;;;;;;;31.90;15.05;;;;;;;;;;5014422;28;20041;-47
2021/03/23 03:42:10;;;;;;;27.33;12.10;;;;;;;;;;5014060;28;20022;-49
2021/03/23 03:44:37;;;;;;;27.50;12.55;;;;;;;;;;5014406;28;20033;-49
2021/03/23 03:47:03;;;;;;;26.20;12.73;;;;;;;;;;5014167;28;20470;-49
2021/03/23 03:49:29;;;;;;;33.10;13.95;;;;;;;;;;5013997;28;20029;-49
2021/03/23 03:51:55;;;;;;;28.33;13.02;;;;;;;;;;5014012;28;20382;-50
2021/03/23 03:54:21;;;;;;;30.85;12.60;;;;;;;;;;5013967;28;20022;-49
2021/03/23 03:56:47;;;;;;;21.27;10.02;;;;;;;;;;5013858;28;20054;-49
2021/03/23 03:59:13;;;;;;;27.55;11.50;;;;;;;;;;5013849;28;20025;-49
2021/03/23 04:01:39;;;;;;;30.20;14.25;;;;;;;;;;5013974;28;20037;-50
2021/03/23 04:04:05;;;;;;;22.83;11.00;;;;;;;;;;5013765;28;20474;-49
2021/03/23 04:06:31;;;;;;;24.40;10.75;;;;;;;;;;5013928;28;20022;-49
2021/03/23 04:08:58;;;;;;;28.10;12.32;;;;;;;;;;5013723;28;20024;-51
2021/03/23 04:11:24;;;;;;;22.38;10.60;;;;;;;;;;5013528;28;20172;-49
2021/03/23 04:13:50;;;;;;;24.88;10.88;;;;;;;;;;5013819;28;20022;-49
2021/03/23 04:16:16;;;;;;;17.75;8.50;;;;;;;;;;5013679;28;20386;-49
2021/03/23 04:18:42;;;;;;;23.00;9.90;;;;;;;;;;5013732;28;20022;-49
2021/03/23 04:21:08;;;;;;;28.13;12.20;;;;;;;;;;5013648;28;20032;-48
2021/03/23 04:23:36;;;;;;;21.27;9.60;;;;;;;;;;5013741;28;20025;-49
2021/03/23 04:26:04;;;;;;;15.48;8.13;;;;;;;;;;5013608;28;20026;-49
2021/03/23 04:28:30;;;;;;;19.52;9.48;;;;;;;;;;5013324;28;20029;-49
2021/03/23 04:30:56;;;;;;;20.27;9.60;;;;;;;;;;5013630;28;20382;-49
2021/03/23 04:33:24;;;;;;;18.98;8.65;;;;;;;;;;5013504;28;20029;-49
2021/03/23 04:35:52;;;;;;;25.35;10.65;;;;;;;;;;5013811;28;20109;-49
2021/03/23 04:38:20;;;;;;;31.00;11.40;;;;;;;;;;5013456;28;20438;-47
2021/03/23 04:40:46;;;;;;;20.95;9.30;;;;;;;;;;5013554;28;20104;-48
2021/03/23 04:43:19;;;;;;;19.23;9.45;;;;;;;;;;5013553;28;20092;-48
2021/03/23 04:45:46;;;;;;;26.52;10.80;;;;;;;;;;5013540;28;20387;-48
2021/03/23 04:48:12;;;;;;;19.73;9.13;;;;;;;;;;5013496;28;20025;-47
2021/03/23 04:50:38;;;;;;;22.15;9.65;;;;;;;;;;5013360;28;20038;-49
2021/03/23 04:53:06;;;;;;;20.63;10.10;;;;;;;;;;5013360;28;20109;-48
2021/03/23 04:55:32;;;;;;;17.83;8.20;;;;;;;;;;5013428;28;20030;-48
2021/03/23 04:57:58;;;;;;;21.95;8.10;;;;;;;;;;5013372;28;20018;-48
2021/03/23 05:00:25;;;;;;;17.10;8.95;;;;;;;;;;5013404;28;20026;-49
2021/03/23 05:02:51;;;;;;;18.27;9.57;;;;;;;;;;5013237;28;20052;-49
2021/03/23 05:05:17;;;;;;;24.02;8.20;;;;;;;;;;5013307;28;20109;-50
2021/03/23 05:07:43;;;;;;;18.55;9.60;;;;;;;;;;5013251;28;20033;-50
2021/03/23 05:10:11;;;;;;;53.28;19.50;;;;;;;;;;5013153;28;20049;-49
2021/03/23 05:12:37;;;;;;;27.60;13.75;;;;;;;;;;5013308;28;20367;-49
2021/03/23 05:15:04;;;;;;;29.08;14.13;;;;;;;;;;5013153;28;20552;-49
2021/03/23 05:17:30;;;;;;;27.35;12.43;;;;;;;;;;5013236;28;20022;-49
2021/03/23 05:19:56;;;;;;;17.08;9.65;;;;;;;;;;5013168;28;20054;-49
2021/03/23 05:22:22;;;;;;;20.58;10.18;;;;;;;;;;5012991;28;20033;-49
2021/03/23 05:24:48;;;;;;;20.70;10.43;;;;;;;;;;5013046;28;20113;-49
2021/03/23 05:27:16;;;;;;;23.23;11.05;;;;;;;;;;5013415;28;20040;-49
2021/03/23 05:29:43;;;;;;;20.90;9.45;;;;;;;;;;5013099;28;20029;-49
2021/03/23 05:32:09;;;;;;;19.92;8.93;;;;;;;;;;5012960;28;20540;-48
2021/03/23 05:34:35;;;;;;;17.65;8.65;;;;;;;;;;5012899;28;20026;-48
2021/03/23 05:37:01;;;;;;;21.88;9.40;;;;;;;;;;5012754;28;20026;-49
2021/03/23 05:39:27;;;;;;;21.58;9.65;;;;;;;;;;5013255;28;20026;-48
2021/03/23 05:42:02;;;;;;;21.25;9.68;;;;;;;;;;5015853;28;20125;-50
2021/03/23 05:44:40;;;;;;;20.73;9.27;;;;;;;;;;5016324;28;20027;-49
2021/03/23 05:47:17;;;;;;;26.25;14.25;;;;;;;;;;5016449;28;20029;-49
2021/03/23 05:49:49;;;;;;;32.45;16.02;;;;;;;;;;5016063;28;20053;-49
2021/03/23 05:52:15;;;;;;;33.22;17.35;;;;;;;;;;5016270;28;20030;-48
2021/03/23 05:54:44;;;;;;;17.38;10.02;;;;;;;;;;5016197;28;20049;-48
2021/03/23 05:57:19;;;;;;;41.22;19.42;;;;;;;;;;5016194;28;20037;-48
2021/03/23 05:59:48;;;;;;;25.25;13.05;;;;;;;;;;5016126;28;20030;-47
2021/03/23 06:02:20;;;;;;;27.40;13.50;;;;;;;;;;5016058;28;20204;-48
2021/03/23 06:04:55;;;;;;;22.70;11.75;;;;;;;;;;5015951;28;20091;-48
2021/03/23 06:07:21;;;;;;;28.55;13.98;;;;;;;;;;5015973;28;20072;-48
2021/03/23 06:09:47;;;;;;;27.85;14.20;;;;;;;;;;5015858;28;20493;-46
2021/03/23 06:12:17;;;;;;;29.35;15.70;;;;;;;;;;5015568;28;20046;-46
2021/03/23 06:14:46;;;;;;;50.25;28.92;;;;;;;;;;5015722;28;20057;-44
2021/03/23 06:17:31;;;;;;;28.45;16.52;;;;;;;;;;5016201;28;20034;-45
2021/03/23 06:20:16;;;;;;;25.88;13.88;;;;;;;;;;5015478;28;20029;-47
2021/03/23 06:22:47;;;;;;;24.75;12.93;;;;;;;;;;5015730;28;20084;-45
2021/03/23 06:25:13;;;;;;;20.00;10.18;;;;;;;;;;5015708;28;20053;-45
2021/03/23 06:27:39;;;;;;;21.77;13.35;;;;;;;;;;5015814;28;20109;-45
2021/03/23 06:30:15;;;;;;;19.90;10.73;;;;;;;;;;5015533;28;20029;-48
2021/03/23 06:32:47;;;;;;;16.33;9.57;;;;;;;;;;5015622;28;20026;-47
2021/03/23 06:35:18;;;;;;;16.25;9.32;;;;;;;;;;5014058;28;20072;-47
2021/03/23 06:37:44;;;;;;;17.77;9.60;;;;;;;;;;5015465;28;20402;-45
2021/03/23 06:40:11;;;;;;;15.90;9.25;;;;;;;;;;5015242;28;20038;-46
2021/03/23 06:42:44;;;;;;;18.27;9.43;;;;;;;;;;5015422;28;20510;-47
2021/03/23 06:45:22;;;;;;;17.20;9.68;;;;;;;;;;5015236;28;20104;-47
2021/03/23 06:47:50;;;;;;;17.15;8.68;;;;;;;;;;5015247;28;20029;-47
2021/03/23 06:50:22;;;;;;;18.25;8.88;;;;;;;;;;5015085;28;20025;-47
2021/03/23 06:53:08;;;;;;;18.50;8.38;;;;;;;;;;5014709;28;20096;-46
2021/03/23 06:55:35;;;;;;;17.27;8.98;;;;;;;;;;5014838;28;20121;-47
2021/03/23 06:58:01;;;;;;;15.68;8.75;;;;;;;;;;5015097;28;20022;-47
2021/03/23 07:00:32;;;;;;;12.82;8.10;;;;;;;;;;5014895;28;20083;-47
2021/03/23 07:03:12;;;;;;;16.57;7.53;;;;;;;;;;5014865;28;20026;-46
2021/03/23 07:05:40;;;;;;;17.38;10.05;;;;;;;;;;5015033;28;20380;-47
2021/03/23 07:08:09;;;;;;;45.40;42.13;;;;;;;;;;5014864;28;20033;-47
2021/03/23 07:10:57;;;;;;;61.92;57.85;;;;;;;;;;5014537;28;20054;-47
2021/03/23 07:13:26;;;;;;;56.10;51.83;;;;;;;;;;5014604;28;20029;-46
2021/03/23 07:16:16;;;;;;;38.53;35.55;;;;;;;;;;5014606;28;20022;-46
2021/03/23 07:18:44;;;;;;;1999.90;999.90;;;;;;;;;;4992722;28;20030;-47
2021/03/23 07:21:22;;;;;;;1999.90;999.90;;;;;;;;;;4992967;28;20491;-47
2021/03/23 07:24:05;;;;;;;1999.90;999.90;;;;;;;;;;4992827;28;20392;-47
2021/03/23 07:26:34;;;;;;;1999.90;999.90;;;;;;;;;;4992746;28;20031;-47
2021/03/23 07:29:12;;;;;;;72.10;67.28;;;;;;;;;;4992676;28;20391;-47
2021/03/23 07:31:57;;;;;;;22.13;9.82;;;;;;;;;;4992639;28;20122;-46
2021/03/23 07:34:29;;;;;;;14.75;7.13;;;;;;;;;;4992664;28;20446;-46
2021/03/23 07:37:00;;;;;;;17.63;8.05;;;;;;;;;;4992560;28;20042;-50
2021/03/23 07:39:38;;;;;;;15.20;7.18;;;;;;;;;;4992666;28;20054;-47
2021/03/23 07:42:27;;;;;;;15.73;8.38;;;;;;;;;;4992311;28;20045;-47
2021/03/23 07:44:53;;;;;;;14.25;7.15;;;;;;;;;;4915675;29;20040;-47
2021/03/23 07:47:35;;;;;;;16.08;8.13;;;;;;;;;;4915353;29;20035;-48
2021/03/23 07:50:07;;;;;;;14.70;7.75;;;;;;;;;;4915444;29;20204;-47
2021/03/23 07:52:43;;;;;;;14.88;8.38;;;;;;;;;;4915535;29;20469;-49
2021/03/23 07:55:15;;;;;;;13.43;7.32;;;;;;;;;;4909906;29;20046;-48
2021/03/23 07:57:44;;;;;;;14.45;8.45;;;;;;;;;;4953588;29;20057;-47
2021/03/23 08:00:28;;;;;;;11.43;6.55;;;;;;;;;;4953868;29;20106;-47
2021/03/23 08:03:09;;;;;;;14.02;5.55;;;;;;;;;;4953111;28;20126;-47
2021/03/23 08:05:38;;;;;;;13.00;6.80;;;;;;;;;;4953769;29;20377;-47
2021/03/23 08:08:23;;;;;;;13.48;6.65;;;;;;;;;;4953705;29;20125;-47
2021/03/23 08:11:21;;;;;;;10.70;5.60;;;;;;;;;;4952963;29;20066;-47
2021/03/23 08:14:03;;;;;;;12.18;6.47;;;;;;;;;;4896422;29;20047;-47
2021/03/23 08:16:47;;;;;;;11.50;5.82;;;;;;;;;;4896350;29;20036;-47
2021/03/23 08:19:30;;;;;;;11.75;5.82;;;;;;;;;;4896074;29;20028;-47
2021/03/23 08:22:14;;;;;;;14.73;7.13;;;;;;;;;;4935383;28;20039;-47
2021/03/23 08:24:55;;;;;;;14.55;6.05;;;;;;;;;;4972448;28;20039;-46
2021/03/23 08:27:40;;;;;;;17.00;5.95;;;;;;;;;;4972488;28;20030;-49
2021/03/23 08:30:11;;;;;;;9.77;5.30;;;;;;;;;;4972488;28;20562;-47
2021/03/23 08:33:01;;;;;;;11.10;5.10;;;;;;;;;;4972401;28;20027;-47
2021/03/23 08:35:36;;;;;;;15.77;7.60;;;;;;;;;;4972370;28;20038;-47
2021/03/23 08:38:21;;;;;;;10.27;6.18;;;;;;;;;;4956200;28;20022;-50
2021/03/23 08:40:53;;;;;;;17.45;7.03;;;;;;;;;;4972235;28;20061;-46
2021/03/23 08:43:25;;;;;;;9.57;5.85;;;;;;;;;;4972288;28;20067;-46
2021/03/23 08:45:53;;;;;;;17.15;7.18;;;;;;;;;;4972388;28;20117;-46
2021/03/23 08:48:38;;;;;;;10.90;5.38;;;;;;;;;;4974749;28;20157;-46
2021/03/23 08:51:07;;;;;;;12.07;6.18;;;;;;;;;;5013743;28;20041;-46
2021/03/23 08:53:34;;;;;;;11.25;6.18;;;;;;;;;;5013410;28;20026;-46
2021/03/23 08:56:04;;;;;;;14.23;6.47;;;;;;;;;;5013773;28;20029;-46
2021/03/23 08:58:50;;;;;;;13.68;6.25;;;;;;;;;;5013463;28;20018;-46
2021/03/23 09:01:34;;;;;;;14.27;5.53;;;;;;;;;;5013499;28;20030;-46
2021/03/23 09:04:03;;;;;;;15.98;6.47;;;;;;;;;;5013323;28;20045;-46
2021/03/23 09:06:46;;;;;;;12.13;5.70;;;;;;;;;;5013295;28;20026;-46
2021/03/23 09:09:22;;;;;;;10.00;4.70;;;;;;;;;;5013177;28;20122;-47
2021/03/23 09:11:48;;;;;;;7.15;3.92;;;;;;;;;;5012850;28;20057;-46
2021/03/23 09:14:17;;;;;;;16.58;5.32;;;;;;;;;;5013937;28;20100;-45
2021/03/23 09:16:43;;;;;;;14.30;5.05;;;;;;;;;;5017258;28;20025;-46
2021/03/23 09:19:09;;;;;;;12.90;4.65;;;;;;;;;;5016852;28;20084;-47
2021/03/23 09:21:56;;;;;;;12.25;5.47;;;;;;;;;;5016729;28;20038;-46
2021/03/23 09:24:30;;;;;;;9.88;5.72;;;;;;;;;;5016813;28;20422;-49
2021/03/23 09:26:57;;;;;;;17.52;8.25;;;;;;;;;;5016453;28;20025;-47
2021/03/23 09:29:35;;;;;;;41.15;20.27;;;;;;;;;;5016820;28;20026;-48
2021/03/23 09:32:06;;;;;;;16.70;10.02;;;;;;;;;;5016552;28;20084;-45
2021/03/23 09:34:50;;;;;;;39.08;19.25;;;;;;;;;;5016412;28;20022;-49
2021/03/23 09:37:31;;;;;;;23.33;12.32;;;;;;;;;;5016587;28;20084;-49
2021/03/23 09:39:57;;;;;;;32.13;17.98;;;;;;;;;;5016544;28;20058;-49
2021/03/23 09:42:30;;;;;;;29.00;15.65;;;;;;;;;;5016461;28;20486;-48
2021/03/23 09:45:20;;;;;;;41.58;20.58;;;;;;;;;;5016366;28;20080;-48
2021/03/23 09:47:57;;;;;;;48.83;26.45;;;;;;;;;;5016510;28;20424;-48
2021/03/23 09:50:32;;;;;;;25.90;14.20;;;;;;;;;;5016191;28;20045;-48
2021/03/23 09:53:02;;;;;;;52.28;24.30;;;;;;;;;;5016274;28;20101;-47
2021/03/23 09:55:29;;;;;;;19.05;9.13;;;;;;;;;;5015928;28;20474;-47
2021/03/23 09:57:56;;;;;;;34.97;17.70;;;;;;;;;;5016300;28;20113;-48
2021/03/23 10:00:22;;;;;;;53.40;27.38;;;;;;;;;;5016320;28;20026;-48
2021/03/23 10:02:48;;;;;;;35.72;18.55;;;;;;;;;;5015868;28;20057;-48
2021/03/23 10:05:14;;;;;;;51.33;24.73;;;;;;;;;;5015521;28;20092;-48
2021/03/23 10:07:42;;;;;;;24.25;11.95;;;;;;;;;;5015967;28;20037;-49
2021/03/23 10:10:12;;;;;;;32.03;16.65;;;;;;;;;;5015567;28;20025;-49
2021/03/23 10:12:38;;;;;;;24.35;13.65;;;;;;;;;;5015957;28;20091;-48
2021/03/23 10:15:22;;;;;;;26.15;12.25;;;;;;;;;;5015795;28;20022;-46
2021/03/23 10:17:49;;;;;;;20.92;11.13;;;;;;;;;;5015673;28;20025;-47
2021/03/23 10:20:19;;;;;;;23.58;10.75;;;;;;;;;;5015709;28;20022;-48
2021/03/23 10:22:54;;;;;;;41.22;19.15;;;;;;;;;;5016312;28;20014;-49
2021/03/23 10:25:23;;;;;;;27.45;13.75;;;;;;;;;;5015626;28;20034;-49
2021/03/23 10:27:50;;;;;;;25.77;12.95;;;;;;;;;;5015373;28;20026;-48
2021/03/23 10:30:16;;;;;;;28.88;15.05;;;;;;;;;;5015410;28;20400;-48
2021/03/23 10:32:48;;;;;;;42.42;17.90;;;;;;;;;;5015539;28;20022;-49
2021/03/23 10:35:16;;;;;;;27.92;11.27;;;;;;;;;;5015292;28;20030;-49
2021/03/23 10:37:42;;;;;;;25.20;13.43;;;;;;;;;;5015369;28;20025;-48
2021/03/23 10:40:29;;;;;;;16.17;6.82;;;;;;;;;;5015177;28;20049;-49
2021/03/23 10:42:55;;;;;;;33.55;17.10;;;;;;;;;;5005121;28;20099;-49
2021/03/23 10:45:29;;;;;;;43.42;24.10;;;;;;;;;;5015178;28;20446;-48
2021/03/23 10:48:23;;;;;;;49.20;23.95;;;;;;;;;;5015155;28;20034;-49
2021/03/23 10:51:11;;;;;;;37.03;18.95;;;;;;;;;;5014121;28;20104;-48
2021/03/23 10:53:37;;;;;;;34.33;18.05;;;;;;;;;;5015275;28;20149;-48
2021/03/23 10:56:19;;;;;;;46.45;23.40;;;;;;;;;;5015176;28;20030;-48
2021/03/23 10:59:04;;;;;;;25.90;13.90;;;;;;;;;;5015235;28;20026;-49
2021/03/23 11:01:30;;;;;;;25.35;12.95;;;;;;;;;;5014973;28;20032;-49
2021/03/23 11:04:10;;;;;;;21.35;13.05;;;;;;;;;;5014857;28;20033;-48
2021/03/23 11:06:40;;;;;;;29.92;15.70;;;;;;;;;;5014980;28;20084;-49
2021/03/23 11:09:08;;;;;;;19.13;10.75;;;;;;;;;;5015011;28;20026;-48
2021/03/23 11:11:37;;;;;;;26.35;13.48;;;;;;;;;;5014463;28;20462;-48
2021/03/23 11:14:03;;;;;;;24.75;13.85;;;;;;;;;;5014809;28;20074;-49
2021/03/23 11:16:32;;;;;;;34.92;16.25;;;;;;;;;;5014775;28;20033;-48
2021/03/23 11:18:59;;;;;;;19.23;10.85;;;;;;;;;;5014423;28;20014;-49
2021/03/23 11:21:26;;;;;;;81.13;30.42;;;;;;;;;;5013437;28;20390;-48
2021/03/23 11:23:55;;;;;;;48.58;17.90;;;;;;;;;;5014698;28;20097;-49
2021/03/23 11:26:26;;;;;;;53.17;19.95;;;;;;;;;;5014577;28;20022;-49
2021/03/23 11:28:57;;;;;;;83.40;37.73;;;;;;;;;;5014608;28;20033;-49
2021/03/23 11:31:25;;;;;;;28.27;10.40;;;;;;;;;;5014362;28;20037;-49
2021/03/23 11:33:52;;;;;;;42.50;14.63;;;;;;;;;;5014442;28;20046;-49
2021/03/23 11:36:19;;;;;;;34.78;12.40;;;;;;;;;;5014104;28;20048;-50
2021/03/23 11:38:45;;;;;;;45.65;14.43;;;;;;;;;;5013364;28;20033;-47
2021/03/23 11:41:26;;;;;;;23.60;8.77;;;;;;;;;;5014206;28;20034;-48
2021/03/23 11:44:01;;;;;;;18.47;9.07;;;;;;;;;;5014204;28;20026;-48
2021/03/23 11:46:48;;;;;;;34.03;13.70;;;;;;;;;;5014041;28;20260;-48
2021/03/23 11:49:18;;;;;;;32.25;14.13;;;;;;;;;;4991312;28;20050;-48
2021/03/23 11:51:48;;;;;;;53.83;23.45;;;;;;;;;;4979298;28;20042;-47
2021/03/23 11:54:15;;;;;;;20.98;10.60;;;;;;;;;;4974834;28;20034;-49
2021/03/23 11:56:41;;;;;;;26.17;13.00;;;;;;;;;;4973936;28;20027;-49
2021/03/23 11:59:10;;;;;;;7.65;4.05;;;;;;;;;;4973639;28;20029;-49
2021/03/23 12:01:36;;;;;;;12.50;5.45;;;;;;;;;;4973350;28;20059;-48
2021/03/23 12:04:02;;;;;;;14.43;8.25;;;;;;;;;;4973293;28;20015;-48
2021/03/23 12:06:47;;;;;;;21.88;9.68;;;;;;;;;;4972869;28;20038;-48
2021/03/23 12:09:18;;;;;;;26.60;12.45;;;;;;;;;;4972923;28;20031;-49
2021/03/23 12:11:44;;;;;;;21.90;11.15;;;;;;;;;;4972290;28;20047;-49
2021/03/23 12:14:17;;;;;;;16.00;8.50;;;;;;;;;;4972688;28;20079;-49
2021/03/23 12:17:00;;;;;;;20.63;10.32;;;;;;;;;;4972568;28;20439;-48
2021/03/23 12:19:31;;;;;;;22.25;12.82;;;;;;;;;;4972464;28;20089;-48
2021/03/23 12:21:57;;;;;;;23.97;11.33;;;;;;;;;;4972452;28;20035;-48
2021/03/23 12:24:23;;;;;;;24.52;11.05;;;;;;;;;;4972469;28;20041;-47
2021/03/23 12:26:50;;;;;;;38.75;21.90;;;;;;;;;;4987612;28;20035;-48
2021/03/23 12:29:16;;;;;;;21.95;10.80;;;;;;;;;;4994021;28;20034;-47
2021/03/23 12:31:42;;;;;;;63.45;32.20;;;;;;;;;;4993893;28;20058;-48
2021/03/23 12:34:09;;;;;;;56.22;29.80;;;;;;;;;;4993953;28;20030;-49
2021/03/23 12:36:35;;;;;;;45.67;22.77;;;;;;;;;;5000547;28;20149;-49
2021/03/23 12:39:02;;;;;;;34.10;16.80;;;;;;;;;;5013405;28;20025;-49
2021/03/23 12:41:31;;;;;;;45.03;22.80;;;;;;;;;;5013345;28;20038;-49
2021/03/23 12:43:57;;;;;;;21.27;11.38;;;;;;;;;;5013309;28;20088;-49
2021/03/23 12:46:24;;;;;;;19.35;10.02;;;;;;;;;;5013374;28;20034;-49
2021/03/23 12:48:50;;;;;;;20.23;11.38;;;;;;;;;;5013305;28;20101;-49
2021/03/23 12:51:25;;;;;;;29.55;11.27;;;;;;;;;;5017200;28;20029;-46
2021/03/23 12:53:52;;;;;;;25.40;12.95;;;;;;;;;;5017075;28;20026;-48
2021/03/23 12:56:19;;;;;;;29.50;13.05;;;;;;;;;;5017142;28;20486;-48
2021/03/23 12:58:45;;;;;;;19.13;11.57;;;;;;;;;;5017377;28;20036;-49
2021/03/23 13:01:13;;;;;;;39.47;21.55;;;;;;;;;;5017043;28;20120;-50
2021/03/23 13:03:39;;;;;;;23.67;13.80;;;;;;;;;;5016834;28;20022;-54
2021/03/23 13:06:08;;;;;;;30.40;16.20;;;;;;;;;;5016598;28;20061;-49
2021/03/23 13:08:37;;;;;;;37.05;20.08;;;;;;;;;;5016846;28;20026;-47
2021/03/23 13:11:08;;;;;;;36.30;21.00;;;;;;;;;;5016721;28;20084;-48
2021/03/23 13:13:36;;;;;;;22.45;13.13;;;;;;;;;;5017161;28;20061;-48
2021/03/23 13:16:03;;;;;;;43.30;24.40;;;;;;;;;;5016776;28;20026;-48
2021/03/23 13:18:30;;;;;;;38.55;20.33;;;;;;;;;;5016762;28;20022;-47
2021/03/23 13:21:01;;;;;;;47.67;23.42;;;;;;;;;;5016569;28;20097;-48
2021/03/23 13:23:30;;;;;;;70.10;27.83;;;;;;;;;;5016614;28;20030;-48
2021/03/23 13:26:01;;;;;;;50.80;22.70;;;;;;;;;;5016670;28;20025;-49
2021/03/23 13:28:48;;;;;;;104.53;44.45;;;;;;;;;;5016593;28;20037;-50
2021/03/23 13:31:18;;;;;;;33.42;15.90;;;;;;;;;;5016498;28;20042;-48
2021/03/23 13:33:48;;;;;;;40.28;18.30;;;;;;;;;;5016407;28;20446;-48
2021/03/23 13:36:32;;;;;;;39.45;18.88;;;;;;;;;;5015113;28;20470;-49
2021/03/23 13:39:00;;;;;;;35.38;16.60;;;;;;;;;;5015744;28;20022;-47
2021/03/23 13:41:26;;;;;;;28.65;12.35;;;;;;;;;;5016319;28;20030;-49
2021/03/23 13:43:56;;;;;;;27.60;13.52;;;;;;;;;;5016482;28;20030;-49
2021/03/23 13:46:43;;;;;;;37.17;17.02;;;;;;;;;;5016311;28;20065;-49
2021/03/23 13:49:09;;;;;;;89.03;36.15;;;;;;;;;;5016314;28;20064;-47
2021/03/23 13:51:35;;;;;;;40.80;17.70;;;;;;;;;;5016140;28;20041;-47
2021/03/23 13:54:01;;;;;;;26.80;14.20;;;;;;;;;;5016055;28;20026;-50
2021/03/23 13:56:29;;;;;;;27.05;14.77;;;;;;;;;;5016459;28;20069;-48
2021/03/23 13:58:55;;;;;;;38.88;20.50;;;;;;;;;;5015802;28;20025;-54
2021/03/23 14:01:21;;;;;;;26.95;12.50;;;;;;;;;;5015186;28;20021;-48
2021/03/23 14:03:48;;;;;;;31.25;14.48;;;;;;;;;;5015960;28;20029;-48
2021/03/23 14:06:22;;;;;;;29.52;14.18;;;;;;;;;;5016066;28;20022;-49
2021/03/23 14:08:49;;;;;;;25.88;10.00;;;;;;;;;;5015845;28;20113;-49
2021/03/23 14:11:16;;;;;;;40.92;18.20;;;;;;;;;;5014861;28;20513;-48
2021/03/23 14:13:43;;;;;;;32.63;17.10;;;;;;;;;;5015722;28;20467;-48
2021/03/23 14:16:10;;;;;;;35.08;18.10;;;;;;;;;;5015315;28;20084;-48
2021/03/23 14:18:38;;;;;;;29.27;14.75;;;;;;;;;;5014550;28;20026;-49
2021/03/23 14:21:05;;;;;;;35.88;18.90;;;;;;;;;;5015837;28;20076;-49
2021/03/23 14:23:38;;;;;;;21.73;10.85;;;;;;;;;;5015693;28;20018;-48
2021/03/23 14:26:05;;;;;;;16.85;8.55;;;;;;;;;;5015618;28;20034;-49
2021/03/23 14:28:31;;;;;;;17.83;8.98;;;;;;;;;;5015557;28;20048;-49
2021/03/23 14:30:59;;;;;;;18.63;9.27;;;;;;;;;;5015632;28;20057;-49
2021/03/23 14:33:25;;;;;;;20.52;11.82;;;;;;;;;;5015573;28;20037;-48
2021/03/23 14:35:52;;;;;;;29.90;14.90;;;;;;;;;;5015430;28;20022;-49
2021/03/23 14:38:25;;;;;;;43.72;19.00;;;;;;;;;;5015424;28;20417;-49